Time;durP1;ratioP1;P1;durP2;ratioP2;P2;SDS_P1;SDS_P2;PMS_P1;PMS_P2;Temp;Humidity;BMP_temperature;BMP_pressure;BME280_temperature;BME280_humidity;BME280_pressure;Samples;Min_cycle;Max_cycle;Signal;HPM_P1;HPM_P2
2022/09/11 00:01:21;;;;;;;12.57;10.05;;;;;;;;;;4982938;28;92589;-66
2022/09/11 00:03:47;;;;;;;16.58;10.68;;;;;;;;;;4987044;28;93758;-65
2022/09/11 00:06:15;;;;;;;15.93;10.50;;;;;;;;;;4994316;28;95671;-66
2022/09/11 00:08:59;;;;;;;14.75;10.80;;;;;;;;;;5002918;28;93441;-66
2022/09/11 00:11:26;;;;;;;17.50;10.93;;;;;;;;;;4995340;28;92697;-66
2022/09/11 00:13:53;;;;;;;17.08;11.70;;;;;;;;;;4991172;28;93194;-66
2022/09/11 00:16:25;;;;;;;18.83;12.35;;;;;;;;;;4994355;28;93498;-65
2022/09/11 00:18:52;;;;;;;16.88;12.32;;;;;;;;;;4992067;28;92547;-66
2022/09/11 00:21:19;;;;;;;19.13;12.00;;;;;;;;;;5000716;28;96265;-66
2022/09/11 00:23:48;;;;;;;15.00;11.60;;;;;;;;;;4989539;28;92675;-66
2022/09/11 00:26:16;;;;;;;15.57;10.82;;;;;;;;;;4986934;28;92990;-65
2022/09/11 00:28:42;;;;;;;16.13;10.95;;;;;;;;;;4991409;28;93461;-66
2022/09/11 00:31:16;;;;;;;17.98;10.88;;;;;;;;;;5000938;28;96306;-66
2022/09/11 00:33:43;;;;;;;16.05;11.63;;;;;;;;;;4989885;28;95762;-66
2022/09/11 00:36:11;;;;;;;18.05;11.63;;;;;;;;;;4995931;28;93752;-67
2022/09/11 00:38:38;;;;;;;13.27;10.55;;;;;;;;;;5001710;28;93442;-65
2022/09/11 00:41:07;;;;;;;17.30;10.55;;;;;;;;;;5001367;28;93779;-66
2022/09/11 00:43:51;;;;;;;13.55;10.60;;;;;;;;;;5002664;28;93819;-66
2022/09/11 00:46:18;;;;;;;11.82;9.50;;;;;;;;;;5004267;28;92493;-66
2022/09/11 00:48:48;;;;;;;11.52;8.50;;;;;;;;;;5006328;28;94420;-65
2022/09/11 00:51:22;;;;;;;8.88;7.85;;;;;;;;;;5013376;28;92551;-66
2022/09/11 00:53:48;;;;;;;14.35;9.35;;;;;;;;;;5012838;28;93101;-66
2022/09/11 00:56:14;;;;;;;17.88;10.93;;;;;;;;;;4996386;28;96956;-66
2022/09/11 00:58:42;;;;;;;16.52;12.32;;;;;;;;;;4996905;28;93620;-67
2022/09/11 01:01:09;;;;;;;16.67;12.90;;;;;;;;;;5004385;28;93160;-66
2022/09/11 01:03:35;;;;;;;19.42;12.90;;;;;;;;;;5008030;28;93742;-66
2022/09/11 01:06:03;;;;;;;18.50;12.57;;;;;;;;;;4999179;28;92444;-65
2022/09/11 01:08:29;;;;;;;16.38;11.70;;;;;;;;;;4998590;28;93197;-65
2022/09/11 01:10:58;;;;;;;14.90;12.32;;;;;;;;;;5011466;28;92460;-65
2022/09/11 01:13:24;;;;;;;15.13;11.30;;;;;;;;;;4993432;28;94281;-65
2022/09/11 01:16:03;;;;;;;17.35;11.80;;;;;;;;;;4993296;28;93423;-65
2022/09/11 01:18:32;;;;;;;16.42;11.95;;;;;;;;;;4993317;28;92439;-65
2022/09/11 01:21:17;;;;;;;12.95;10.30;;;;;;;;;;5006223;28;94877;-66
2022/09/11 01:24:02;;;;;;;17.17;11.73;;;;;;;;;;5003534;28;94227;-66
2022/09/11 01:26:33;;;;;;;15.20;11.80;;;;;;;;;;5011805;28;92458;-66
2022/09/11 01:29:17;;;;;;;13.65;11.43;;;;;;;;;;5004192;28;93277;-66
2022/09/11 01:31:51;;;;;;;14.40;11.32;;;;;;;;;;5014562;28;93384;-66
2022/09/11 01:34:35;;;;;;;13.88;10.80;;;;;;;;;;5011886;28;93146;-66
2022/09/11 01:37:08;;;;;;;18.40;12.07;;;;;;;;;;4993152;28;93566;-65
2022/09/11 01:39:40;;;;;;;21.75;12.48;;;;;;;;;;4979226;28;91834;-65
2022/09/11 01:42:11;;;;;;;16.63;12.02;;;;;;;;;;4993180;28;92527;-66
2022/09/11 01:44:40;;;;;;;17.40;12.73;;;;;;;;;;5003790;28;93551;-67
2022/09/11 01:47:09;;;;;;;12.35;10.93;;;;;;;;;;4994505;28;95215;-66
2022/09/11 01:49:39;;;;;;;17.08;11.57;;;;;;;;;;5011886;28;95876;-65
2022/09/11 01:52:07;;;;;;;13.75;10.60;;;;;;;;;;5008814;28;93480;-66
2022/09/11 01:54:41;;;;;;;16.67;11.40;;;;;;;;;;5012972;28;92526;-66
2022/09/11 01:57:10;;;;;;;15.35;10.63;;;;;;;;;;4996634;28;93383;-66
2022/09/11 01:59:42;;;;;;;17.70;11.10;;;;;;;;;;4994729;28;92457;-65
2022/09/11 02:02:10;;;;;;;16.05;10.50;;;;;;;;;;4991266;28;93235;-66
2022/09/11 02:04:43;;;;;;;12.85;10.23;;;;;;;;;;4992719;28;92975;-66
2022/09/11 02:07:13;;;;;;;11.15;9.63;;;;;;;;;;4991584;28;93238;-65
2022/09/11 02:09:43;;;;;;;15.00;10.05;;;;;;;;;;4989370;28;94024;-66
2022/09/11 02:12:11;;;;;;;21.75;10.73;;;;;;;;;;4992418;28;94905;-66
2022/09/11 02:14:40;;;;;;;13.25;11.45;;;;;;;;;;4995438;28;92445;-67
2022/09/11 02:17:15;;;;;;;14.70;10.68;;;;;;;;;;4996183;28;93540;-66
2022/09/11 02:19:42;;;;;;;17.50;11.52;;;;;;;;;;4992782;28;92412;-66
2022/09/11 02:22:08;;;;;;;21.83;10.90;;;;;;;;;;4997105;28;93213;-66
2022/09/11 02:24:35;;;;;;;14.40;10.13;;;;;;;;;;5004912;28;93384;-66
2022/09/11 02:27:02;;;;;;;13.50;10.05;;;;;;;;;;4997399;28;93129;-65
2022/09/11 02:29:28;;;;;;;19.98;11.35;;;;;;;;;;4995682;28;93638;-67
2022/09/11 02:31:55;;;;;;;13.98;11.60;;;;;;;;;;5008010;28;94454;-66
2022/09/11 02:34:25;;;;;;;18.90;12.02;;;;;;;;;;5015120;28;92763;-66
2022/09/11 02:37:10;;;;;;;15.32;11.50;;;;;;;;;;4993204;28;95534;-66
2022/09/11 02:39:36;;;;;;;22.33;12.75;;;;;;;;;;5012158;28;93422;-66
2022/09/11 02:42:02;;;;;;;15.70;12.68;;;;;;;;;;5011669;28;93721;-66
2022/09/11 02:44:29;;;;;;;18.85;11.93;;;;;;;;;;5010501;28;93748;-66
2022/09/11 02:47:03;;;;;;;18.45;11.57;;;;;;;;;;5011176;28;92550;-66
2022/09/11 02:49:35;;;;;;;14.00;11.18;;;;;;;;;;5014484;28;93286;-66
2022/09/11 02:52:08;;;;;;;19.48;12.18;;;;;;;;;;5014650;28;92745;-66
2022/09/11 02:54:44;;;;;;;14.75;11.13;;;;;;;;;;5012300;28;91783;-66
2022/09/11 02:57:23;;;;;;;15.05;11.18;;;;;;;;;;5011941;28;92616;-66
2022/09/11 02:59:54;;;;;;;13.13;9.57;;;;;;;;;;5003160;28;93751;-65
2022/09/11 03:02:21;;;;;;;15.10;10.20;;;;;;;;;;4996658;28;94821;-66
2022/09/11 03:04:48;;;;;;;14.43;9.80;;;;;;;;;;4993531;28;93889;-66
2022/09/11 03:07:15;;;;;;;10.68;9.00;;;;;;;;;;5004772;28;93581;-67
2022/09/11 03:09:42;;;;;;;11.57;9.55;;;;;;;;;;4995058;28;93189;-65
2022/09/11 03:12:09;;;;;;;13.25;8.98;;;;;;;;;;5000021;28;93411;-65
2022/09/11 03:14:37;;;;;;;13.82;10.02;;;;;;;;;;4989145;28;94131;-66
2022/09/11 03:17:03;;;;;;;14.25;9.70;;;;;;;;;;4993498;28;93215;-65
2022/09/11 03:19:30;;;;;;;18.42;10.98;;;;;;;;;;4994125;28;92785;-65
2022/09/11 03:21:56;;;;;;;13.40;10.77;;;;;;;;;;5008886;28;92531;-66
2022/09/11 03:24:22;;;;;;;13.32;10.35;;;;;;;;;;5002652;28;93495;-65
2022/09/11 03:26:49;;;;;;;12.63;10.05;;;;;;;;;;5000357;28;94979;-65
2022/09/11 03:29:15;;;;;;;14.15;10.00;;;;;;;;;;4998655;28;95598;-66
2022/09/11 03:31:41;;;;;;;11.57;9.82;;;;;;;;;;5003460;28;94437;-66
2022/09/11 03:34:08;;;;;;;15.98;10.35;;;;;;;;;;4998574;28;92681;-65
2022/09/11 03:36:35;;;;;;;14.65;9.15;;;;;;;;;;5002312;28;94148;-66
2022/09/11 03:39:01;;;;;;;12.70;9.45;;;;;;;;;;4994461;28;93455;-66
2022/09/11 03:41:28;;;;;;;16.55;10.63;;;;;;;;;;5011495;28;93833;-67
2022/09/11 03:43:54;;;;;;;11.93;9.80;;;;;;;;;;5001354;28;93224;-66
2022/09/11 03:46:20;;;;;;;12.27;9.50;;;;;;;;;;4992033;28;92429;-66
2022/09/11 03:48:46;;;;;;;12.98;9.00;;;;;;;;;;4983075;28;97284;-66
2022/09/11 03:51:13;;;;;;;14.90;10.15;;;;;;;;;;4992462;28;95777;-66
2022/09/11 03:53:40;;;;;;;14.05;9.55;;;;;;;;;;4990333;28;93023;-66
2022/09/11 03:56:07;;;;;;;20.95;10.10;;;;;;;;;;4999362;28;93452;-67
2022/09/11 03:58:33;;;;;;;11.45;8.93;;;;;;;;;;5000797;28;93413;-66
2022/09/11 04:00:59;;;;;;;14.65;8.85;;;;;;;;;;4987890;28;92461;-65
2022/09/11 04:03:25;;;;;;;13.75;8.63;;;;;;;;;;5006909;28;94216;-67
2022/09/11 04:05:59;;;;;;;10.75;8.65;;;;;;;;;;4998335;28;93995;-66
2022/09/11 04:08:25;;;;;;;9.57;8.55;;;;;;;;;;5011851;28;93222;-66
2022/09/11 04:11:02;;;;;;;14.52;9.00;;;;;;;;;;5005344;28;93424;-66
2022/09/11 04:13:32;;;;;;;13.30;9.30;;;;;;;;;;5007070;28;94179;-66
2022/09/11 04:16:00;;;;;;;13.95;9.27;;;;;;;;;;4993921;28;94987;-66
2022/09/11 04:18:26;;;;;;;13.55;9.88;;;;;;;;;;5003215;28;93673;-66
2022/09/11 04:20:52;;;;;;;11.88;8.93;;;;;;;;;;4993784;28;92504;-65
2022/09/11 04:23:18;;;;;;;13.45;9.30;;;;;;;;;;5014222;28;93192;-65
2022/09/11 04:25:45;;;;;;;13.85;8.75;;;;;;;;;;5011057;28;93437;-65
2022/09/11 04:28:11;;;;;;;11.00;7.93;;;;;;;;;;5001372;28;92587;-66
2022/09/11 04:30:37;;;;;;;10.98;8.27;;;;;;;;;;4992865;28;93442;-66
2022/09/11 04:33:04;;;;;;;11.38;8.40;;;;;;;;;;5016011;28;92082;-66
2022/09/11 04:35:31;;;;;;;12.00;8.10;;;;;;;;;;5008989;28;93120;-66
2022/09/11 04:37:57;;;;;;;9.40;8.23;;;;;;;;;;5001689;28;93960;-66
2022/09/11 04:40:23;;;;;;;10.88;8.73;;;;;;;;;;5008079;28;94880;-65
2022/09/11 04:42:50;;;;;;;11.07;8.25;;;;;;;;;;4995591;28;95569;-66
2022/09/11 04:45:16;;;;;;;12.27;8.57;;;;;;;;;;4993591;28;93422;-65
2022/09/11 04:47:42;;;;;;;11.23;8.30;;;;;;;;;;4996100;28;92410;-66
2022/09/11 04:50:09;;;;;;;9.77;8.10;;;;;;;;;;5006659;28;94184;-65
2022/09/11 04:52:35;;;;;;;9.48;8.43;;;;;;;;;;5009352;28;92435;-65
2022/09/11 04:55:01;;;;;;;13.15;7.22;;;;;;;;;;4997630;28;93146;-67
2022/09/11 04:57:28;;;;;;;9.02;7.50;;;;;;;;;;4990697;28;92986;-66
2022/09/11 04:59:54;;;;;;;10.35;7.15;;;;;;;;;;4990636;28;92444;-66
2022/09/11 05:02:21;;;;;;;9.73;6.80;;;;;;;;;;5013121;28;93127;-65
2022/09/11 05:04:47;;;;;;;8.63;7.47;;;;;;;;;;5001555;28;95942;-66
2022/09/11 05:07:14;;;;;;;10.15;7.70;;;;;;;;;;5007244;28;92521;-66
2022/09/11 05:09:40;;;;;;;9.45;7.97;;;;;;;;;;4995308;28;93110;-67
2022/09/11 05:12:06;;;;;;;10.75;8.55;;;;;;;;;;4997523;28;93671;-67
2022/09/11 05:14:34;;;;;;;9.90;8.45;;;;;;;;;;4992433;28;93118;-66
2022/09/11 05:17:00;;;;;;;21.63;12.55;;;;;;;;;;5001103;28;93405;-66
2022/09/11 05:19:27;;;;;;;71.30;19.02;;;;;;;;;;4977652;28;93418;-66
2022/09/11 05:21:54;;;;;;;22.77;14.02;;;;;;;;;;5000908;28;93486;-66
2022/09/11 05:24:20;;;;;;;298.10;21.40;;;;;;;;;;5012123;28;93460;-66
2022/09/11 05:26:46;;;;;;;146.77;21.17;;;;;;;;;;4987771;28;92493;-65
2022/09/11 05:29:14;;;;;;;59.05;18.90;;;;;;;;;;4991638;28;95570;-65
2022/09/11 05:31:40;;;;;;;85.03;19.35;;;;;;;;;;5014781;28;93719;-67
2022/09/11 05:34:07;;;;;;;33.08;18.23;;;;;;;;;;5014277;28;93472;-66
2022/09/11 05:36:34;;;;;;;138.10;20.40;;;;;;;;;;5006436;28;93067;-65
2022/09/11 05:39:02;;;;;;;107.78;20.52;;;;;;;;;;5014104;28;92628;-66
2022/09/11 05:41:28;;;;;;;122.10;20.70;;;;;;;;;;4995018;28;93175;-65
2022/09/11 05:43:54;;;;;;;97.63;19.95;;;;;;;;;;5011239;28;93424;-65
2022/09/11 05:46:21;;;;;;;28.48;18.88;;;;;;;;;;4997708;28;91729;-66
2022/09/11 05:48:47;;;;;;;25.85;17.67;;;;;;;;;;4993290;28;93067;-66
2022/09/11 05:51:20;;;;;;;73.88;18.00;;;;;;;;;;5001080;28;92737;-67
2022/09/11 05:53:54;;;;;;;167.35;20.58;;;;;;;;;;5015618;28;94842;-66
2022/09/11 05:56:21;;;;;;;113.70;21.05;;;;;;;;;;5007679;28;93687;-66
2022/09/11 05:58:50;;;;;;;66.85;18.58;;;;;;;;;;5013656;28;92469;-66
2022/09/11 06:01:17;;;;;;;25.88;16.25;;;;;;;;;;4999943;28;93582;-66
2022/09/11 06:03:47;;;;;;;83.90;17.73;;;;;;;;;;4991183;28;93371;-65
2022/09/11 06:06:14;;;;;;;101.45;19.67;;;;;;;;;;4992172;28;92537;-66
2022/09/11 06:08:43;;;;;;;130.75;18.65;;;;;;;;;;4993581;28;93223;-65
2022/09/11 06:11:11;;;;;;;153.43;19.60;;;;;;;;;;4999381;28;92645;-65
2022/09/11 06:13:38;;;;;;;267.35;22.13;;;;;;;;;;5000926;28;92483;-66
2022/09/11 06:16:10;;;;;;;260.98;23.55;;;;;;;;;;4998147;28;93705;-66
2022/09/11 06:18:43;;;;;;;283.27;24.02;;;;;;;;;;4989647;28;94839;-66
2022/09/11 06:21:10;;;;;;;299.45;26.25;;;;;;;;;;4989512;28;95648;-65
2022/09/11 06:23:38;;;;;;;419.80;25.63;;;;;;;;;;4988261;28;93924;-64
2022/09/11 06:26:07;;;;;;;174.27;21.73;;;;;;;;;;4996252;28;92846;-64
2022/09/11 06:28:36;;;;;;;263.67;21.27;;;;;;;;;;4993793;28;92315;-65
2022/09/11 06:31:04;;;;;;;215.77;21.67;;;;;;;;;;4993657;28;93960;-65
2022/09/11 06:33:34;;;;;;;155.52;18.42;;;;;;;;;;4998611;28;92536;-64
2022/09/11 06:36:02;;;;;;;87.05;17.15;;;;;;;;;;5011578;28;93252;-65
2022/09/11 06:38:30;;;;;;;171.07;19.52;;;;;;;;;;5005641;28;93389;-64
2022/09/11 06:40:58;;;;;;;62.45;16.17;;;;;;;;;;4993771;28;93556;-64
2022/09/11 06:43:24;;;;;;;96.40;16.95;;;;;;;;;;4983879;28;95807;-65
2022/09/11 06:45:50;;;;;;;126.75;17.65;;;;;;;;;;4993270;28;92456;-65
2022/09/11 06:48:18;;;;;;;224.02;20.10;;;;;;;;;;4974940;28;93350;-65
2022/09/11 06:50:44;;;;;;;75.25;17.52;;;;;;;;;;4989797;28;92408;-64
2022/09/11 06:53:11;;;;;;;120.55;18.52;;;;;;;;;;4995488;28;94223;-64
2022/09/11 06:55:38;;;;;;;63.17;16.75;;;;;;;;;;4992125;28;93546;-64
2022/09/11 06:58:04;;;;;;;59.45;15.13;;;;;;;;;;4992641;28;93795;-64
2022/09/11 07:00:31;;;;;;;27.50;14.68;;;;;;;;;;4995978;28;91724;-64
2022/09/11 07:02:58;;;;;;;14.75;13.15;;;;;;;;;;4995519;28;94050;-66
2022/09/11 07:05:24;;;;;;;25.30;14.35;;;;;;;;;;4983782;28;92590;-64
2022/09/11 07:07:51;;;;;;;27.98;15.43;;;;;;;;;;4981428;28;94832;-64
2022/09/11 07:10:18;;;;;;;65.75;17.48;;;;;;;;;;4991907;28;93783;-64
2022/09/11 07:12:44;;;;;;;30.73;15.40;;;;;;;;;;5004484;28;92553;-65
2022/09/11 07:15:10;;;;;;;27.65;16.80;;;;;;;;;;4991256;28;93200;-65
2022/09/11 07:17:37;;;;;;;20.80;16.42;;;;;;;;;;4985318;28;93880;-64
2022/09/11 07:20:03;;;;;;;18.25;15.05;;;;;;;;;;4987621;28;92768;-64
2022/09/11 07:22:30;;;;;;;42.20;17.67;;;;;;;;;;5001008;28;93204;-64
2022/09/11 07:24:56;;;;;;;77.97;17.65;;;;;;;;;;5001940;28;91781;-65
2022/09/11 07:27:22;;;;;;;90.78;19.30;;;;;;;;;;4995880;28;92491;-66
2022/09/11 07:29:49;;;;;;;20.75;16.23;;;;;;;;;;5003075;28;93721;-64
2022/09/11 07:32:15;;;;;;;53.65;18.08;;;;;;;;;;4987128;28;95635;-64
2022/09/11 07:34:41;;;;;;;25.92;16.48;;;;;;;;;;4984609;28;95505;-64
2022/09/11 07:37:08;;;;;;;30.85;18.02;;;;;;;;;;4978359;28;95495;-64
2022/09/11 07:39:34;;;;;;;27.58;17.17;;;;;;;;;;4980952;28;92474;-65
2022/09/11 07:42:00;;;;;;;33.47;17.70;;;;;;;;;;4991404;28;93195;-64
2022/09/11 07:44:27;;;;;;;19.30;16.75;;;;;;;;;;4989461;28;93801;-65
2022/09/11 07:46:53;;;;;;;18.40;16.02;;;;;;;;;;4989120;28;93213;-64
2022/09/11 07:49:19;;;;;;;56.53;18.55;;;;;;;;;;4994766;28;92698;-64
2022/09/11 07:51:45;;;;;;;22.38;15.75;;;;;;;;;;4976068;28;92423;-65
2022/09/11 07:54:12;;;;;;;27.65;18.10;;;;;;;;;;5007762;28;93313;-65
2022/09/11 07:56:40;;;;;;;30.88;17.67;;;;;;;;;;5000874;28;96201;-64
2022/09/11 07:59:07;;;;;;;25.08;17.23;;;;;;;;;;5014322;28;92482;-64
2022/09/11 08:01:33;;;;;;;23.33;16.65;;;;;;;;;;5006746;28;93489;-64
2022/09/11 08:04:04;;;;;;;20.95;17.63;;;;;;;;;;4991196;28;93928;-64
2022/09/11 08:06:30;;;;;;;;;;;;;;;;;;4992639;28;94228;-65
2022/09/11 08:08:57;;;;;;;26.85;18.92;;;;;;;;;;5005189;28;124108;-65
2022/09/11 08:11:24;;;;;;;24.45;18.70;;;;;;;;;;5014334;28;92559;-65
2022/09/11 08:13:51;;;;;;;28.40;19.60;;;;;;;;;;4994678;28;93648;-64
2022/09/11 08:16:18;;;;;;;24.58;19.70;;;;;;;;;;4992675;28;93752;-65
2022/09/11 08:18:44;;;;;;;30.70;20.67;;;;;;;;;;4994620;28;92566;-65
2022/09/11 08:21:11;;;;;;;26.20;20.13;;;;;;;;;;4992475;28;94849;-65
2022/09/11 08:23:39;;;;;;;25.52;19.58;;;;;;;;;;4984034;28;93413;-66
2022/09/11 08:26:05;;;;;;;26.02;18.15;;;;;;;;;;4988808;28;92589;-64
2022/09/11 08:28:33;;;;;;;28.83;20.63;;;;;;;;;;4992845;28;93552;-65
2022/09/11 08:31:00;;;;;;;29.95;21.15;;;;;;;;;;4992994;28;92401;-65
2022/09/11 08:33:27;;;;;;;26.02;20.58;;;;;;;;;;4999385;28;93190;-64
2022/09/11 08:35:53;;;;;;;26.23;18.95;;;;;;;;;;5011446;28;93444;-66
2022/09/11 08:38:19;;;;;;;22.45;18.13;;;;;;;;;;5014283;28;91720;-65
2022/09/11 08:40:46;;;;;;;26.50;18.52;;;;;;;;;;4988068;28;92497;-65
2022/09/11 08:43:22;;;;;;;24.77;18.15;;;;;;;;;;4973794;28;93398;-64
2022/09/11 08:45:50;;;;;;;22.02;16.63;;;;;;;;;;4985064;28;96527;-66
2022/09/11 08:48:20;;;;;;;17.00;13.10;;;;;;;;;;4980504;28;95535;-65
2022/09/11 08:50:48;;;;;;;13.10;8.60;;;;;;;;;;4993665;28;92521;-64
2022/09/11 08:53:15;;;;;;;16.33;11.25;;;;;;;;;;4995860;28;93186;-65
2022/09/11 08:55:43;;;;;;;16.20;10.20;;;;;;;;;;4988804;28;93739;-65
2022/09/11 08:58:33;;;;;;;13.02;7.95;;;;;;;;;;4975098;28;92441;-65
2022/09/11 09:01:24;;;;;;;8.68;4.30;;;;;;;;;;4989100;28;94184;-64
2022/09/11 09:04:10;;;;;;;9.05;5.25;;;;;;;;;;5005805;28;92695;-65
2022/09/11 09:06:45;;;;;;;8.15;6.30;;;;;;;;;;5000982;28;92791;-64
2022/09/11 09:09:14;;;;;;;10.10;7.25;;;;;;;;;;4988371;28;94093;-65
2022/09/11 09:11:40;;;;;;;12.38;6.93;;;;;;;;;;4996275;28;95818;-64
2022/09/11 09:14:15;;;;;;;7.63;5.72;;;;;;;;;;4993327;28;95628;-64
2022/09/11 09:16:44;;;;;;;10.98;4.40;;;;;;;;;;4992830;28;94016;-64
2022/09/11 09:19:26;;;;;;;5.90;2.72;;;;;;;;;;5008490;28;92496;-65
2022/09/11 09:22:11;;;;;;;10.05;3.78;;;;;;;;;;5003581;28;93110;-65
2022/09/11 09:24:45;;;;;;;8.32;4.50;;;;;;;;;;5001900;28;93893;-67
2022/09/11 09:27:15;;;;;;;8.32;4.30;;;;;;;;;;4993494;28;92714;-65
2022/09/11 09:29:44;;;;;;;9.88;4.18;;;;;;;;;;5012319;28;94129;-65
2022/09/11 09:32:13;;;;;;;10.43;4.72;;;;;;;;;;4996612;28;94795;-65
2022/09/11 09:34:41;;;;;;;9.27;5.30;;;;;;;;;;4995939;28;92370;-65
2022/09/11 09:37:15;;;;;;;15.25;5.25;;;;;;;;;;5010313;28;95819;-65
2022/09/11 09:39:42;;;;;;;9.75;5.28;;;;;;;;;;5005597;28;92479;-65
2022/09/11 09:42:08;;;;;;;7.05;3.90;;;;;;;;;;4976736;28;93504;-65
2022/09/11 09:44:41;;;;;;;6.25;2.55;;;;;;;;;;4994617;28;93369;-64
2022/09/11 09:47:12;;;;;;;7.80;3.50;;;;;;;;;;5004898;28;92608;-65
2022/09/11 09:49:38;;;;;;;9.20;3.88;;;;;;;;;;4974900;28;94407;-64
2022/09/11 09:52:24;;;;;;;12.23;4.10;;;;;;;;;;4987459;28;93436;-64
2022/09/11 09:54:56;;;;;;;9.70;3.15;;;;;;;;;;4997864;28;92678;-65
2022/09/11 09:57:23;;;;;;;4.43;2.50;;;;;;;;;;4980239;28;93722;-64
2022/09/11 10:00:05;;;;;;;20.17;2.85;;;;;;;;;;4974864;28;92549;-64
2022/09/11 10:02:38;;;;;;;5.32;2.10;;;;;;;;;;4976196;28;94925;-65
2022/09/11 10:05:12;;;;;;;4.25;2.30;;;;;;;;;;4989761;28;93617;-65
2022/09/11 10:07:46;;;;;;;4.55;1.95;;;;;;;;;;4979299;28;92556;-65
2022/09/11 10:10:33;;;;;;;6.03;1.98;;;;;;;;;;4985492;28;93179;-65
2022/09/11 10:13:01;;;;;;;7.95;2.08;;;;;;;;;;5006632;28;93424;-64
2022/09/11 10:15:47;;;;;;;5.72;2.72;;;;;;;;;;4994795;28;92368;-65
2022/09/11 10:18:31;;;;;;;7.00;2.85;;;;;;;;;;4994376;28;93617;-65
2022/09/11 10:21:12;;;;;;;9.52;3.42;;;;;;;;;;4981365;28;91735;-64
2022/09/11 10:24:15;;;;;;;6.72;3.63;;;;;;;;;;4984054;28;92623;-65
2022/09/11 10:26:44;;;;;;;9.38;3.45;;;;;;;;;;4967634;28;93446;-65
2022/09/11 10:29:13;;;;;;;9.27;3.85;;;;;;;;;;4990016;28;95101;-65
2022/09/11 10:31:46;;;;;;;7.95;3.10;;;;;;;;;;4986192;28;95689;-64
2022/09/11 10:34:19;;;;;;;7.05;3.15;;;;;;;;;;4975342;28;93368;-65
2022/09/11 10:36:55;;;;;;;8.20;2.95;;;;;;;;;;4989577;28;92457;-65
2022/09/11 10:39:24;;;;;;;7.82;2.42;;;;;;;;;;4990522;28;93100;-66
2022/09/11 10:41:53;;;;;;;8.65;3.63;;;;;;;;;;4992254;28;93449;-65
2022/09/11 10:44:20;;;;;;;6.35;3.38;;;;;;;;;;4993384;28;94160;-66
2022/09/11 10:47:01;;;;;;;5.60;3.00;;;;;;;;;;4990607;28;92701;-66
2022/09/11 10:49:27;;;;;;;6.55;3.10;;;;;;;;;;4989605;28;92454;-66
2022/09/11 10:51:58;;;;;;;5.50;2.90;;;;;;;;;;4984648;28;93089;-66
2022/09/11 10:54:36;;;;;;;5.43;2.33;;;;;;;;;;4976718;28;95800;-66
2022/09/11 10:57:04;;;;;;;4.82;2.30;;;;;;;;;;4991914;28;92652;-66
2022/09/11 10:59:40;;;;;;;6.38;2.30;;;;;;;;;;4992953;28;93467;-65
2022/09/11 11:02:16;;;;;;;4.22;2.13;;;;;;;;;;4986226;28;93943;-64
2022/09/11 11:04:42;;;;;;;4.40;2.58;;;;;;;;;;4995030;28;92519;-65
2022/09/11 11:07:14;;;;;;;5.55;2.30;;;;;;;;;;5016219;28;94355;-64
2022/09/11 11:09:49;;;;;;;8.27;2.05;;;;;;;;;;5001611;28;92388;-65
2022/09/11 11:12:22;;;;;;;5.28;2.65;;;;;;;;;;4986304;28;93172;-66
2022/09/11 11:14:51;;;;;;;8.23;2.20;;;;;;;;;;4981009;28;93592;-65
2022/09/11 11:17:17;;;;;;;2.67;1.58;;;;;;;;;;4996040;28;92520;-65
2022/09/11 11:19:52;;;;;;;9.55;2.38;;;;;;;;;;4992224;28;95146;-66
2022/09/11 11:22:37;;;;;;;5.00;2.03;;;;;;;;;;4992244;28;94496;-67
2022/09/11 11:25:15;;;;;;;5.57;2.00;;;;;;;;;;5019290;28;93073;-65
2022/09/11 11:27:44;;;;;;;4.63;1.80;;;;;;;;;;4997039;28;93183;-64
2022/09/11 11:30:10;;;;;;;;;;;;;;;;;;4982073;28;93175;-65
2022/09/11 11:32:39;;;;;;;3.47;1.88;;;;;;;;;;4991585;28;123449;-64
2022/09/11 11:35:17;;;;;;;3.67;1.83;;;;;;;;;;5007110;28;93448;-63
2022/09/11 11:37:46;;;;;;;6.03;2.37;;;;;;;;;;5015179;28;92233;-64
2022/09/11 11:40:12;;;;;;;2.73;1.83;;;;;;;;;;5014339;28;92731;-64
2022/09/11 11:42:45;;;;;;;4.65;2.20;;;;;;;;;;4977808;28;93431;-65
2022/09/11 11:45:23;;;;;;;5.30;1.83;;;;;;;;;;4986193;28;94847;-64
2022/09/11 11:47:51;;;;;;;6.60;1.88;;;;;;;;;;4998383;28;95570;-63
2022/09/11 11:50:17;;;;;;;3.00;1.30;;;;;;;;;;4996997;28;92510;-64
2022/09/11 11:53:02;;;;;;;2.58;1.60;;;;;;;;;;4994205;28;93151;-64
2022/09/11 11:55:37;;;;;;;4.93;1.42;;;;;;;;;;4980764;28;93389;-64
2022/09/11 11:58:13;;;;;;;3.97;1.45;;;;;;;;;;4976698;28;92444;-64
2022/09/11 12:00:43;;;;;;;4.82;1.40;;;;;;;;;;4978426;28;93097;-63
2022/09/11 12:03:32;;;;;;;6.15;1.70;;;;;;;;;;4994742;28;94083;-63
2022/09/11 12:05:58;;;;;;;3.92;2.08;;;;;;;;;;4977456;28;92588;-63
2022/09/11 12:08:26;;;;;;;3.30;1.70;;;;;;;;;;4985857;28;93086;-63
2022/09/11 12:10:55;;;;;;;3.47;1.23;;;;;;;;;;4993251;28;95825;-64
2022/09/11 12:13:24;;;;;;;8.23;1.48;;;;;;;;;;4976039;28;95833;-63
2022/09/11 12:16:17;;;;;;;4.85;1.30;;;;;;;;;;4987058;28;93517;-63
2022/09/11 12:19:03;;;;;;;2.53;1.48;;;;;;;;;;5001815;28;92773;-63
2022/09/11 12:21:33;;;;;;;10.13;1.73;;;;;;;;;;4994622;28;94572;-63
2022/09/11 12:24:02;;;;;;;3.50;1.50;;;;;;;;;;4995037;28;93428;-63
2022/09/11 12:26:32;;;;;;;3.60;1.70;;;;;;;;;;4989937;28;92425;-63
2022/09/11 12:29:11;;;;;;;4.47;1.85;;;;;;;;;;4997021;28;93417;-63
2022/09/11 12:32:06;;;;;;;3.97;2.30;;;;;;;;;;5011408;28;93532;-63
2022/09/11 12:34:38;;;;;;;4.95;2.58;;;;;;;;;;5010154;28;92561;-63
2022/09/11 12:38:05;;;;;;;4.85;2.00;;;;;;;;;;5022078;28;86498;-63
2022/09/11 12:40:37;;;;;;;5.35;1.80;;;;;;;;;;5013686;28;87114;-62
2022/09/11 12:43:15;;;;;;;5.15;2.10;;;;;;;;;;5017976;28;88707;-63
2022/09/11 12:45:42;;;;;;;3.85;1.80;;;;;;;;;;5029216;27;87790;-64
2022/09/11 12:48:15;;;;;;;4.28;1.90;;;;;;;;;;5013300;28;88377;-63
2022/09/11 12:50:48;;;;;;;4.80;2.38;;;;;;;;;;5001965;28;87691;-65
2022/09/11 12:53:17;;;;;;;6.20;2.15;;;;;;;;;;5016246;28;87376;-64
2022/09/11 12:56:09;;;;;;;3.97;1.75;;;;;;;;;;5033424;27;87783;-67
2022/09/11 12:58:37;;;;;;;3.90;1.67;;;;;;;;;;5015649;28;87441;-67
2022/09/11 13:01:07;;;;;;;5.40;1.98;;;;;;;;;;5014027;28;88262;-67
2022/09/11 13:03:34;;;;;;;7.10;1.70;;;;;;;;;;5014118;28;87638;-68
2022/09/11 13:06:05;;;;;;;5.13;1.63;;;;;;;;;;5015703;28;87473;-67
2022/09/11 13:08:36;;;;;;;7.82;1.98;;;;;;;;;;5009688;28;87906;-64
2022/09/11 13:11:24;;;;;;;4.50;1.83;;;;;;;;;;5008350;28;87704;-69
2022/09/11 13:13:51;;;;;;;6.93;1.95;;;;;;;;;;4996590;28;87821;-69
2022/09/11 13:16:24;;;;;;;6.72;1.80;;;;;;;;;;4994271;28;88205;-67
2022/09/11 13:18:55;;;;;;;4.60;1.80;;;;;;;;;;5010283;28;87223;-66
2022/09/11 13:21:21;;;;;;;4.47;2.03;;;;;;;;;;5010362;28;87119;-65
2022/09/11 13:23:51;;;;;;;2.97;1.90;;;;;;;;;;4995042;28;90408;-67
2022/09/11 13:26:26;;;;;;;6.10;1.70;;;;;;;;;;5007262;28;87673;-69
2022/09/11 13:28:53;;;;;;;8.75;1.90;;;;;;;;;;5003682;28;88923;-67
2022/09/11 13:31:40;;;;;;;5.55;2.40;;;;;;;;;;4993413;28;87600;-65
2022/09/11 13:34:16;;;;;;;8.63;3.47;;;;;;;;;;4993016;28;87738;-66
2022/09/11 13:36:42;;;;;;;7.25;2.85;;;;;;;;;;5009920;28;88905;-67
2022/09/11 13:39:09;;;;;;;5.15;2.50;;;;;;;;;;4992237;28;87622;-66
2022/09/11 13:41:37;;;;;;;5.40;2.50;;;;;;;;;;4993854;28;87512;-67
2022/09/11 13:44:08;;;;;;;4.25;2.15;;;;;;;;;;4995964;28;87886;-67
2022/09/11 13:46:34;;;;;;;3.45;2.30;;;;;;;;;;5005797;28;86848;-66
2022/09/11 13:49:09;;;;;;;5.97;2.58;;;;;;;;;;4980509;28;87947;-66
2022/09/11 13:51:39;;;;;;;7.00;2.95;;;;;;;;;;4980469;28;87601;-66
2022/09/11 13:54:07;;;;;;;5.68;2.50;;;;;;;;;;4992441;28;87494;-66
2022/09/11 13:56:46;;;;;;;3.45;1.73;;;;;;;;;;4978935;28;86993;-66
2022/09/11 13:59:26;;;;;;;2.42;1.70;;;;;;;;;;4979456;28;87612;-66
2022/09/11 14:01:54;;;;;;;6.47;1.83;;;;;;;;;;4980859;28;87427;-68
2022/09/11 14:04:21;;;;;;;8.55;2.50;;;;;;;;;;4980774;28;87686;-66
2022/09/11 14:06:47;;;;;;;5.60;2.03;;;;;;;;;;4987615;28;87689;-66
2022/09/11 14:09:17;;;;;;;3.67;2.30;;;;;;;;;;4978457;28;87845;-65
2022/09/11 14:11:43;;;;;;;10.38;2.55;;;;;;;;;;4980834;28;87222;-65
2022/09/11 14:14:12;;;;;;;11.10;2.22;;;;;;;;;;4979578;28;87538;-66
2022/09/11 14:16:46;;;;;;;17.05;6.88;;;;;;;;;;4980905;28;88873;-66
2022/09/11 14:19:13;;;;;;;15.15;7.10;;;;;;;;;;4984313;28;88080;-66
2022/09/11 14:21:42;;;;;;;8.55;3.20;;;;;;;;;;4993162;28;86887;-66
2022/09/11 14:24:25;;;;;;;5.07;2.97;;;;;;;;;;4979900;28;89380;-66
2022/09/11 14:26:52;;;;;;;4.18;2.42;;;;;;;;;;4983345;28;87703;-65
2022/09/11 14:29:27;;;;;;;3.65;2.30;;;;;;;;;;4983278;28;87597;-65
2022/09/11 14:32:13;;;;;;;6.95;1.95;;;;;;;;;;4977960;28;86671;-65
2022/09/11 14:34:39;;;;;;;4.82;1.75;;;;;;;;;;4979018;28;87498;-65
2022/09/11 14:37:14;;;;;;;4.07;1.80;;;;;;;;;;4986519;28;87906;-66
2022/09/11 14:39:45;;;;;;;3.33;1.50;;;;;;;;;;4977536;28;87587;-66
2022/09/11 14:42:15;;;;;;;5.93;1.92;;;;;;;;;;4976845;28;86933;-65
2022/09/11 14:44:41;;;;;;;4.67;1.93;;;;;;;;;;4978252;28;88003;-65
2022/09/11 14:47:16;;;;;;;6.82;1.98;;;;;;;;;;4981697;28;87260;-65